Time;durP1;ratioP1;P1;durP2;ratioP2;P2;SDS_P1;SDS_P2;PMS_P1;PMS_P2;Temp;Humidity;BMP_temperature;BMP_pressure;BME280_temperature;BME280_humidity;BME280_pressure;Samples;Min_cycle;Max_cycle;Signal;HPM_P1;HPM_P2
2023/10/14 00:01:15;;;;;;;11.90;4.05;;;;;;;;;;5017202;28;20406;-58
2023/10/14 00:03:43;;;;;;;13.02;4.10;;;;;;;;;;5012247;28;20034;-58
2023/10/14 00:06:12;;;;;;;8.77;4.50;;;;;;;;;;5020145;28;20037;-59
2023/10/14 00:11:18;;;;;;;8.77;4.40;;;;;;;;;;5026171;28;20033;-59
2023/10/14 00:13:49;;;;;;;11.77;4.35;;;;;;;;;;5030804;28;20041;-58
2023/10/14 00:18:52;;;;;;;10.60;4.60;;;;;;;;;;5023098;28;20041;-59
2023/10/14 00:21:18;;;;;;;10.15;4.13;;;;;;;;;;5020164;28;20428;-60
2023/10/14 00:23:44;;;;;;;10.30;4.22;;;;;;;;;;5025394;28;20041;-59
2023/10/14 00:26:19;;;;;;;6.60;4.43;;;;;;;;;;5024322;28;20481;-60
2023/10/14 00:28:54;;;;;;;10.65;4.60;;;;;;;;;;5022214;28;20532;-60
2023/10/14 00:31:24;;;;;;;10.68;4.63;;;;;;;;;;5022653;28;20064;-59
2023/10/14 00:33:53;;;;;;;12.93;4.82;;;;;;;;;;5023003;28;20044;-59
2023/10/14 00:36:20;;;;;;;;;;;;;;;;;;5022826;28;20025;-59
2023/10/14 00:38:46;;;;;;;6.10;4.15;;;;;;;;;;5023566;28;20000;-60
2023/10/14 00:41:12;;;;;;;7.07;4.10;;;;;;;;;;5022629;28;20025;-60
2023/10/14 00:43:42;;;;;;;7.60;4.60;;;;;;;;;;5017321;28;20485;-60
2023/10/14 00:46:13;;;;;;;8.60;4.43;;;;;;;;;;5019218;28;20041;-59
2023/10/14 00:48:41;;;;;;;9.88;4.47;;;;;;;;;;5019643;28;20033;-60
2023/10/14 00:51:10;;;;;;;9.15;4.70;;;;;;;;;;5015947;28;20052;-60
2023/10/14 00:53:52;;;;;;;9.93;4.55;;;;;;;;;;5014986;28;20412;-60
2023/10/14 00:56:20;;;;;;;7.15;4.97;;;;;;;;;;5014325;28;20033;-60
2023/10/14 00:58:51;;;;;;;9.02;4.78;;;;;;;;;;5013404;28;20517;-60
2023/10/14 01:01:21;;;;;;;11.65;5.15;;;;;;;;;;5014645;28;20034;-61
2023/10/14 01:03:48;;;;;;;10.05;4.88;;;;;;;;;;5014390;28;20029;-60
2023/10/14 01:06:34;;;;;;;7.20;4.47;;;;;;;;;;5025741;28;20030;-59
2023/10/14 01:09:10;;;;;;;10.73;5.07;;;;;;;;;;5026076;28;20400;-59
2023/10/14 01:11:37;;;;;;;10.40;5.07;;;;;;;;;;5025092;28;20511;-59
2023/10/14 01:14:07;;;;;;;11.82;4.70;;;;;;;;;;5019561;28;20034;-59
2023/10/14 01:16:39;;;;;;;7.85;4.72;;;;;;;;;;5055764;28;20041;-59
2023/10/14 01:19:05;;;;;;;7.53;4.80;;;;;;;;;;5023742;28;20412;-59
2023/10/14 01:21:38;;;;;;;7.55;4.82;;;;;;;;;;5025192;28;20111;-59
2023/10/14 01:24:15;;;;;;;8.27;5.00;;;;;;;;;;5020368;28;20106;-59
2023/10/14 01:26:51;;;;;;;7.53;4.78;;;;;;;;;;5047775;28;20400;-60
2023/10/14 01:29:26;;;;;;;7.30;4.78;;;;;;;;;;5023099;28;20230;-60
2023/10/14 01:32:10;;;;;;;7.78;5.30;;;;;;;;;;5003599;28;20037;-59
2023/10/14 01:34:42;;;;;;;10.07;5.30;;;;;;;;;;5023209;28;20044;-59
2023/10/14 01:37:19;;;;;;;8.90;5.18;;;;;;;;;;5020009;28;20414;-59
2023/10/14 01:39:50;;;;;;;10.10;5.22;;;;;;;;;;5020137;28;20041;-58
2023/10/14 01:42:17;;;;;;;8.55;5.38;;;;;;;;;;5020607;28;20643;-59
2023/10/14 01:44:44;;;;;;;14.05;6.30;;;;;;;;;;5017317;28;20497;-59
2023/10/14 01:47:11;;;;;;;12.18;5.53;;;;;;;;;;5017921;28;20228;-59
2023/10/14 01:49:37;;;;;;;11.45;6.10;;;;;;;;;;5018336;28;20503;-59
2023/10/14 01:52:08;;;;;;;13.05;5.90;;;;;;;;;;5012953;28;20033;-59
2023/10/14 01:54:39;;;;;;;13.20;6.18;;;;;;;;;;5014050;28;20038;-59
2023/10/14 01:57:15;;;;;;;16.05;6.38;;;;;;;;;;5013009;28;20048;-59
2023/10/14 01:59:43;;;;;;;15.18;6.25;;;;;;;;;;5017388;28;20049;-59
2023/10/14 02:02:09;;;;;;;11.27;6.30;;;;;;;;;;5018167;28;20045;-59
2023/10/14 02:04:36;;;;;;;11.80;7.00;;;;;;;;;;5022146;28;20029;-59
2023/10/14 02:07:21;;;;;;;12.13;6.35;;;;;;;;;;5023923;28;20068;-58
2023/10/14 02:09:48;;;;;;;12.18;6.03;;;;;;;;;;5025215;28;20044;-59
2023/10/14 02:12:15;;;;;;;11.75;6.30;;;;;;;;;;5038406;28;20034;-58
2023/10/14 02:14:54;;;;;;;12.38;6.35;;;;;;;;;;5023042;28;20404;-58
2023/10/14 02:17:21;;;;;;;;;;;;;;;;;;5024115;28;20041;-60
2023/10/14 02:19:50;;;;;;;12.40;6.25;;;;;;;;;;5024999;28;19913;-60
2023/10/14 02:22:22;;;;;;;11.88;6.40;;;;;;;;;;5024398;28;20041;-58
2023/10/14 02:24:49;;;;;;;12.05;6.50;;;;;;;;;;5019753;28;20046;-59
2023/10/14 02:27:16;;;;;;;13.48;6.30;;;;;;;;;;5025455;28;20041;-59
2023/10/14 02:29:45;;;;;;;7.72;5.82;;;;;;;;;;5026950;28;20765;-59
2023/10/14 02:32:12;;;;;;;9.35;6.47;;;;;;;;;;5022335;28;20033;-59
2023/10/14 02:34:39;;;;;;;11.05;6.07;;;;;;;;;;5021885;28;20056;-59
2023/10/14 02:37:07;;;;;;;14.38;6.55;;;;;;;;;;5024331;28;20049;-58
2023/10/14 02:39:33;;;;;;;13.30;6.75;;;;;;;;;;5027370;28;20029;-60
2023/10/14 02:42:05;;;;;;;11.18;6.95;;;;;;;;;;5020917;28;20037;-58
2023/10/14 02:44:33;;;;;;;9.52;6.25;;;;;;;;;;5021429;28;20460;-58
2023/10/14 02:47:04;;;;;;;12.57;6.18;;;;;;;;;;5017503;28;20042;-59
2023/10/14 02:49:36;;;;;;;13.80;6.93;;;;;;;;;;5019656;28;20034;-59
2023/10/14 02:52:18;;;;;;;9.05;6.60;;;;;;;;;;5016089;28;20493;-58
2023/10/14 02:55:10;;;;;;;13.85;6.82;;;;;;;;;;5021187;28;20034;-60
2023/10/14 02:57:36;;;;;;;8.52;6.15;;;;;;;;;;5016229;28;20060;-59
2023/10/14 03:00:02;;;;;;;10.73;6.53;;;;;;;;;;5009649;28;20044;-58
2023/10/14 03:02:48;;;;;;;10.88;6.88;;;;;;;;;;5017242;28;20057;-58
2023/10/14 03:05:32;;;;;;;12.30;6.63;;;;;;;;;;5028075;28;20092;-58
2023/10/14 03:08:08;;;;;;;12.73;6.78;;;;;;;;;;5025132;28;20033;-58
2023/10/14 03:10:39;;;;;;;12.77;7.10;;;;;;;;;;5026749;28;20444;-59
2023/10/14 03:13:12;;;;;;;9.57;6.80;;;;;;;;;;5026061;28;20045;-59
2023/10/14 03:15:39;;;;;;;11.00;6.82;;;;;;;;;;5023819;28;20289;-59
2023/10/14 03:18:07;;;;;;;14.27;7.20;;;;;;;;;;5025581;28;21645;-59
2023/10/14 03:20:40;;;;;;;18.15;7.10;;;;;;;;;;5026832;28;20029;-59
2023/10/14 03:23:18;;;;;;;12.90;7.47;;;;;;;;;;5023272;28;20037;-58
2023/10/14 03:25:49;;;;;;;12.15;7.07;;;;;;;;;;5023283;28;20079;-58
2023/10/14 03:28:20;;;;;;;16.48;7.50;;;;;;;;;;5021601;28;20056;-58
2023/10/14 03:30:58;;;;;;;11.32;7.25;;;;;;;;;;5023208;28;20523;-58
2023/10/14 03:33:29;;;;;;;11.30;6.70;;;;;;;;;;5022400;28;20056;-58
2023/10/14 03:36:05;;;;;;;11.77;7.10;;;;;;;;;;5022443;28;20037;-58
2023/10/14 03:41:19;;;;;;;9.35;6.63;;;;;;;;;;5023431;28;20041;-57
2023/10/14 03:43:54;;;;;;;;;;;;;;;;;;;;;
2023/10/14 03:46:23;;;;;;;11.38;6.85;;;;;;;;;;5016645;28;20376;-59
2023/10/14 03:48:56;;;;;;;14.55;7.40;;;;;;;;;;5017682;28;20038;-58
2023/10/14 03:51:30;;;;;;;10.68;6.20;;;;;;;;;;5021653;28;20074;-58
2023/10/14 03:53:58;;;;;;;10.77;6.55;;;;;;;;;;5021703;28;20050;-58
2023/10/14 03:56:31;;;;;;;15.55;7.10;;;;;;;;;;5021196;28;20029;-58
2023/10/14 03:59:02;;;;;;;12.82;6.78;;;;;;;;;;5019622;28;20040;-57
2023/10/14 04:04:20;;;;;;;11.90;6.53;;;;;;;;;;5026178;28;20041;-59
2023/10/14 04:06:55;;;;;;;12.70;6.70;;;;;;;;;;5031116;28;20033;-59
2023/10/14 04:09:36;;;;;;;17.25;7.03;;;;;;;;;;5022759;28;20034;-58
2023/10/14 04:12:07;;;;;;;13.95;7.18;;;;;;;;;;5026753;28;20505;-59
2023/10/14 04:14:36;;;;;;;13.15;7.55;;;;;;;;;;5022794;28;20053;-58
2023/10/14 04:17:10;;;;;;;14.40;8.30;;;;;;;;;;5021666;28;20037;-58
2023/10/14 04:19:47;;;;;;;14.50;7.25;;;;;;;;;;5019678;28;20049;-58
2023/10/14 04:27:36;;;;;;;18.33;7.70;;;;;;;;;;5023151;28;20032;-58
2023/10/14 04:30:20;;;;;;;15.13;7.43;;;;;;;;;;5023718;28;20037;-59
2023/10/14 04:32:57;;;;;;;16.33;7.30;;;;;;;;;;5021193;28;20041;-59
2023/10/14 04:35:24;;;;;;;13.48;6.70;;;;;;;;;;5023262;28;20577;-57
2023/10/14 04:37:54;;;;;;;17.40;7.35;;;;;;;;;;5021644;28;20432;-59
2023/10/14 04:43:18;;;;;;;14.07;7.32;;;;;;;;;;5019738;28;20026;-59
2023/10/14 04:45:57;;;;;;;18.10;7.03;;;;;;;;;;5013104;28;20054;-59
2023/10/14 04:48:58;;;;;;;14.95;6.70;;;;;;;;;;5015453;28;20040;-58
2023/10/14 04:51:15;;;;;;;12.38;6.63;;;;;;;;;;5013706;28;20046;-58
2023/10/14 04:53:46;;;;;;;14.45;7.00;;;;;;;;;;5013742;28;20041;-57
2023/10/14 04:56:21;;;;;;;13.93;6.43;;;;;;;;;;5014597;28;20413;-59
2023/10/14 04:58:52;;;;;;;14.50;7.20;;;;;;;;;;5010744;28;20045;-58
2023/10/14 05:01:18;;;;;;;12.60;6.30;;;;;;;;;;5020561;28;20065;-58
2023/10/14 05:03:46;;;;;;;14.52;6.93;;;;;;;;;;5024776;28;20025;-57
2023/10/14 05:08:44;;;;;;;12.50;6.85;;;;;;;;;;5031891;28;20040;-58
2023/10/14 05:11:15;;;;;;;12.43;6.95;;;;;;;;;;5024047;28;20397;-58
2023/10/14 05:13:44;;;;;;;14.35;7.05;;;;;;;;;;5022561;28;20036;-58
2023/10/14 05:16:20;;;;;;;14.55;6.72;;;;;;;;;;5022031;28;20053;-57
2023/10/14 05:19:07;;;;;;;13.82;6.15;;;;;;;;;;5019555;28;21668;-58
2023/10/14 05:21:36;;;;;;;17.35;6.78;;;;;;;;;;5025652;28;20044;-58
2023/10/14 05:24:05;;;;;;;12.40;6.43;;;;;;;;;;5021533;28;20045;-58
2023/10/14 05:26:36;;;;;;;15.80;6.93;;;;;;;;;;5022844;28;20049;-59
2023/10/14 05:29:11;;;;;;;11.07;6.43;;;;;;;;;;5022789;28;20068;-57
2023/10/14 05:31:37;;;;;;;14.93;6.53;;;;;;;;;;5020726;28;20034;-59
2023/10/14 05:34:04;;;;;;;14.80;6.28;;;;;;;;;;5020947;28;20045;-59
2023/10/14 05:36:32;;;;;;;12.25;6.03;;;;;;;;;;5020703;28;20045;-59
2023/10/14 05:39:02;;;;;;;15.43;6.25;;;;;;;;;;5023040;28;20041;-59
2023/10/14 05:41:29;;;;;;;17.33;6.10;;;;;;;;;;5021124;28;20046;-58
2023/10/14 05:43:55;;;;;;;15.05;6.00;;;;;;;;;;5014214;28;20037;-59
2023/10/14 05:46:21;;;;;;;10.45;5.50;;;;;;;;;;5017298;28;20045;-59
2023/10/14 05:48:47;;;;;;;11.27;5.90;;;;;;;;;;5014144;28;20394;-58
2023/10/14 05:51:15;;;;;;;12.25;6.30;;;;;;;;;;5019197;28;20040;-59
2023/10/14 05:53:42;;;;;;;13.43;6.32;;;;;;;;;;5013209;28;20038;-59
2023/10/14 05:56:14;;;;;;;15.45;6.45;;;;;;;;;;5014827;28;20109;-59
2023/10/14 05:58:41;;;;;;;13.13;5.93;;;;;;;;;;5012454;28;20029;-59
2023/10/14 06:01:09;;;;;;;8.15;5.35;;;;;;;;;;5026909;28;20052;-59
2023/10/14 06:03:36;;;;;;;9.20;5.80;;;;;;;;;;5027123;28;20513;-59
2023/10/14 06:06:03;;;;;;;8.95;5.00;;;;;;;;;;5029748;28;20616;-59
2023/10/14 06:08:32;;;;;;;8.90;5.45;;;;;;;;;;5027271;28;20054;-59
2023/10/14 06:10:59;;;;;;;11.98;5.20;;;;;;;;;;5025863;28;20607;-59
2023/10/14 06:13:27;;;;;;;10.18;5.45;;;;;;;;;;5026328;28;20053;-59
2023/10/14 06:15:53;;;;;;;11.55;5.32;;;;;;;;;;5029429;28;20053;-59
2023/10/14 06:18:19;;;;;;;13.00;5.57;;;;;;;;;;5025683;28;20042;-58
2023/10/14 06:20:45;;;;;;;9.60;5.32;;;;;;;;;;5024689;28;20033;-58
2023/10/14 06:23:12;;;;;;;12.20;5.25;;;;;;;;;;5023962;28;20409;-59
2023/10/14 06:25:38;;;;;;;11.00;5.60;;;;;;;;;;5024638;28;20486;-59
2023/10/14 06:28:07;;;;;;;8.90;5.38;;;;;;;;;;5023988;28;20034;-59
2023/10/14 06:30:33;;;;;;;10.83;5.20;;;;;;;;;;5022408;28;20057;-60
2023/10/14 06:33:05;;;;;;;12.40;5.55;;;;;;;;;;5024975;28;20064;-59
2023/10/14 06:35:35;;;;;;;11.57;5.78;;;;;;;;;;5025982;28;20060;-57
2023/10/14 06:38:03;;;;;;;14.35;5.32;;;;;;;;;;5023619;28;20034;-58
2023/10/14 06:40:35;;;;;;;12.15;5.50;;;;;;;;;;5024393;28;20417;-59
2023/10/14 06:43:09;;;;;;;11.35;5.88;;;;;;;;;;5016473;28;20026;-58
2023/10/14 06:45:36;;;;;;;9.02;5.60;;;;;;;;;;5021843;28;20033;-58
2023/10/14 06:48:03;;;;;;;12.32;5.70;;;;;;;;;;5015895;28;20057;-57
2023/10/14 06:50:31;;;;;;;13.77;6.15;;;;;;;;;;5017550;28;20037;-57
2023/10/14 06:53:07;;;;;;;12.32;5.50;;;;;;;;;;5019328;28;20046;-57
2023/10/14 06:55:39;;;;;;;15.32;6.45;;;;;;;;;;5015161;28;20050;-57
2023/10/14 06:58:09;;;;;;;12.82;5.65;;;;;;;;;;5023757;28;20089;-57
2023/10/14 07:00:38;;;;;;;11.55;5.55;;;;;;;;;;5027332;28;20037;-57
2023/10/14 07:03:10;;;;;;;;;;;;;;;;;;5027200;28;20049;-57
2023/10/14 07:05:56;;;;;;;12.15;6.35;;;;;;;;;;5028909;28;20197;-58
2023/10/14 07:08:24;;;;;;;9.07;5.30;;;;;;;;;;5024616;28;20041;-58
2023/10/14 07:10:52;;;;;;;13.20;6.53;;;;;;;;;;5014025;28;20030;-57
2023/10/14 07:13:20;;;;;;;19.00;7.10;;;;;;;;;;5025117;28;20058;-56
2023/10/14 07:15:48;;;;;;;8.70;6.32;;;;;;;;;;5024417;28;20037;-57
2023/10/14 07:18:22;;;;;;;13.98;6.53;;;;;;;;;;5020791;28;20041;-58
2023/10/14 07:21:15;;;;;;;12.45;6.50;;;;;;;;;;5025927;28;20532;-57
2023/10/14 07:23:41;;;;;;;14.50;6.25;;;;;;;;;;5023441;28;20037;-59
2023/10/14 07:26:12;;;;;;;13.32;6.35;;;;;;;;;;5022572;28;20033;-60
2023/10/14 07:28:51;;;;;;;17.05;6.95;;;;;;;;;;5024149;28;20413;-60
2023/10/14 07:31:17;;;;;;;;;;;;;;;;;;5020876;28;20044;-59
2023/10/14 07:33:43;;;;;;;10.73;6.03;;;;;;;;;;5019939;28;20351;-59
2023/10/14 07:36:11;;;;;;;18.55;7.43;;;;;;;;;;5019880;28;20482;-58
2023/10/14 07:38:38;;;;;;;14.30;6.63;;;;;;;;;;5019755;28;20037;-60
2023/10/14 07:41:07;;;;;;;13.00;7.20;;;;;;;;;;5019781;28;20038;-58
2023/10/14 07:43:33;;;;;;;15.23;7.82;;;;;;;;;;5016451;28;20037;-59
2023/10/14 07:46:01;;;;;;;13.93;7.88;;;;;;;;;;5013354;28;20056;-59
2023/10/14 07:48:27;;;;;;;18.77;8.50;;;;;;;;;;5016206;28;20409;-59
2023/10/14 07:50:56;;;;;;;18.25;10.05;;;;;;;;;;5014659;28;20045;-59
2023/10/14 07:53:22;;;;;;;17.50;9.35;;;;;;;;;;5023754;28;20034;-58
2023/10/14 07:55:52;;;;;;;19.20;8.55;;;;;;;;;;5018961;28;20072;-60
2023/10/14 07:58:28;;;;;;;19.10;9.32;;;;;;;;;;5025528;28;20476;-60
2023/10/14 08:00:55;;;;;;;19.00;9.80;;;;;;;;;;5026727;28;20041;-60
2023/10/14 08:03:26;;;;;;;22.45;9.50;;;;;;;;;;5025061;28;20037;-60
2023/10/14 08:05:54;;;;;;;27.73;11.43;;;;;;;;;;5026547;28;20497;-59
2023/10/14 08:08:22;;;;;;;20.40;10.20;;;;;;;;;;5023528;28;20033;-60
2023/10/14 08:10:50;;;;;;;26.58;10.18;;;;;;;;;;5024115;28;20224;-60
2023/10/14 08:13:24;;;;;;;28.77;12.38;;;;;;;;;;5022093;28;20030;-60
2023/10/14 08:15:52;;;;;;;22.98;11.93;;;;;;;;;;5025236;28;20057;-60
2023/10/14 08:18:19;;;;;;;25.00;11.10;;;;;;;;;;5004496;28;20033;-61
2023/10/14 08:20:46;;;;;;;24.15;10.38;;;;;;;;;;5030112;28;20045;-59
2023/10/14 08:23:12;;;;;;;22.83;10.25;;;;;;;;;;5025216;28;20026;-60
2023/10/14 08:25:41;;;;;;;20.30;9.93;;;;;;;;;;5024724;28;20033;-61
2023/10/14 08:28:10;;;;;;;18.98;8.65;;;;;;;;;;5016916;28;20029;-60
2023/10/14 08:30:46;;;;;;;18.15;8.43;;;;;;;;;;5022787;28;20042;-59
2023/10/14 08:33:13;;;;;;;19.65;8.70;;;;;;;;;;5014867;28;20037;-59
2023/10/14 08:35:42;;;;;;;23.00;8.02;;;;;;;;;;5014918;28;20053;-59
2023/10/14 08:38:19;;;;;;;13.43;7.38;;;;;;;;;;5014504;28;20520;-59
2023/10/14 08:40:49;;;;;;;12.63;6.80;;;;;;;;;;5014303;28;20045;-59
2023/10/14 08:43:20;;;;;;;14.52;6.97;;;;;;;;;;5016385;28;20044;-59
2023/10/14 08:45:49;;;;;;;13.52;6.40;;;;;;;;;;5012333;28;20045;-60
2023/10/14 08:48:16;;;;;;;;;;;;;;;;;;5015936;28;20045;-61
2023/10/14 08:50:42;;;;;;;8.55;5.05;;;;;;;;;;5013646;28;19913;-59
2023/10/14 08:53:10;;;;;;;10.82;5.05;;;;;;;;;;5012582;28;20532;-60
2023/10/14 08:55:38;;;;;;;7.50;4.45;;;;;;;;;;5022281;28;20041;-60
2023/10/14 08:58:07;;;;;;;9.38;4.57;;;;;;;;;;5023893;28;20038;-60
2023/10/14 09:00:38;;;;;;;8.15;4.10;;;;;;;;;;5024573;28;20064;-60
2023/10/14 09:03:06;;;;;;;12.25;4.40;;;;;;;;;;5031657;28;20025;-61
2023/10/14 09:05:44;;;;;;;8.57;3.67;;;;;;;;;;5022963;28;20037;-60
2023/10/14 09:08:14;;;;;;;7.15;3.97;;;;;;;;;;5020512;28;20033;-60
2023/10/14 09:10:41;;;;;;;6.32;3.75;;;;;;;;;;5019919;28;20060;-64
2023/10/14 09:13:08;;;;;;;7.32;3.80;;;;;;;;;;5019762;28;20053;-59
2023/10/14 09:15:41;;;;;;;6.97;3.67;;;;;;;;;;5021354;28;20049;-58
2023/10/14 09:18:21;;;;;;;6.80;3.30;;;;;;;;;;5017994;28;20041;-59
2023/10/14 09:20:55;;;;;;;6.40;3.40;;;;;;;;;;5018991;28;20405;-58
2023/10/14 09:23:34;;;;;;;5.72;2.80;;;;;;;;;;5019866;28;20045;-58
2023/10/14 09:26:03;;;;;;;11.32;3.28;;;;;;;;;;5014485;28;20041;-58
2023/10/14 09:28:29;;;;;;;6.63;3.45;;;;;;;;;;5022861;28;20586;-61
2023/10/14 09:30:57;;;;;;;6.38;2.85;;;;;;;;;;5022910;28;20044;-59
2023/10/14 09:33:29;;;;;;;7.40;3.30;;;;;;;;;;5020538;28;20045;-61
2023/10/14 09:36:03;;;;;;;5.85;3.33;;;;;;;;;;4999175;28;20516;-58
2023/10/14 09:38:32;;;;;;;7.72;3.50;;;;;;;;;;5021348;28;20204;-59
2023/10/14 09:41:03;;;;;;;7.53;3.90;;;;;;;;;;5017512;28;20050;-59
2023/10/14 09:43:35;;;;;;;6.30;3.60;;;;;;;;;;5020681;28;20064;-59
2023/10/14 09:46:08;;;;;;;6.32;3.47;;;;;;;;;;5021040;28;20076;-61
2023/10/14 09:48:35;;;;;;;8.55;3.53;;;;;;;;;;5016898;28;20418;-58
2023/10/14 09:51:03;;;;;;;5.32;2.72;;;;;;;;;;5016979;28;20048;-59
2023/10/14 09:53:32;;;;;;;4.50;2.67;;;;;;;;;;5019165;28;20489;-59
2023/10/14 09:56:12;;;;;;;5.27;2.93;;;;;;;;;;5030847;28;20030;-59
2023/10/14 09:58:43;;;;;;;5.82;2.92;;;;;;;;;;5024585;28;20288;-59
2023/10/14 10:01:16;;;;;;;4.60;2.38;;;;;;;;;;5028431;28;20053;-60
2023/10/14 10:03:48;;;;;;;5.85;2.97;;;;;;;;;;5025579;28;20030;-59
2023/10/14 10:06:26;;;;;;;7.90;3.30;;;;;;;;;;5026187;28;20040;-59
2023/10/14 10:08:59;;;;;;;7.10;3.53;;;;;;;;;;5036317;28;20044;-58
2023/10/14 10:11:27;;;;;;;7.18;2.72;;;;;;;;;;5028851;28;20041;-60
2023/10/14 10:13:54;;;;;;;4.47;1.48;;;;;;;;;;5032709;28;20515;-58
2023/10/14 10:16:21;;;;;;;1.52;0.73;;;;;;;;;;5022534;28;20046;-59
2023/10/14 10:18:57;;;;;;;2.40;0.82;;;;;;;;;;5022254;28;20034;-59
2023/10/14 10:21:30;;;;;;;2.75;0.93;;;;;;;;;;5029183;28;20045;-59
2023/10/14 10:24:09;;;;;;;1.95;0.73;;;;;;;;;;5023711;28;20036;-59
2023/10/14 10:27:03;;;;;;;2.45;0.95;;;;;;;;;;5028185;28;20408;-59
2023/10/14 10:29:42;;;;;;;2.22;1.00;;;;;;;;;;5026394;28;20425;-60
2023/10/14 10:32:11;;;;;;;2.95;1.13;;;;;;;;;;5024280;28;20038;-60
2023/10/14 10:35:07;;;;;;;1.45;0.80;;;;;;;;;;5026081;28;20053;-60
2023/10/14 10:37:46;;;;;;;1.98;0.75;;;;;;;;;;5027156;28;20064;-59
2023/10/14 10:40:14;;;;;;;1.23;0.90;;;;;;;;;;5028252;28;20045;-59
2023/10/14 10:42:47;;;;;;;1.50;0.75;;;;;;;;;;5024247;28;20045;-61
2023/10/14 10:45:21;;;;;;;1.65;0.77;;;;;;;;;;5019853;28;20037;-60
2023/10/14 10:47:56;;;;;;;3.30;0.88;;;;;;;;;;5016012;28;20034;-60
2023/10/14 10:50:36;;;;;;;1.60;0.90;;;;;;;;;;5016993;28;20053;-60
2023/10/14 10:53:08;;;;;;;2.60;0.85;;;;;;;;;;5022257;28;20045;-60
2023/10/14 10:55:36;;;;;;;2.20;0.80;;;;;;;;;;5026725;28;20132;-60
2023/10/14 10:58:03;;;;;;;1.08;0.85;;;;;;;;;;5024720;28;20838;-60
2023/10/14 11:00:30;;;;;;;1.00;0.85;;;;;;;;;;5026620;28;20064;-60
2023/10/14 11:02:57;;;;;;;1.67;0.82;;;;;;;;;;5027485;28;20041;-60
2023/10/14 11:05:25;;;;;;;1.00;0.75;;;;;;;;;;5023698;28;20052;-60
2023/10/14 11:07:55;;;;;;;6.60;1.55;;;;;;;;;;5022709;28;20563;-60
2023/10/14 11:10:38;;;;;;;2.42;1.20;;;;;;;;;;5025134;28;20060;-60
2023/10/14 11:13:07;;;;;;;2.40;1.05;;;;;;;;;;5023707;28;20041;-60
2023/10/14 11:15:36;;;;;;;3.55;1.27;;;;;;;;;;5021542;28;20497;-58
2023/10/14 11:18:03;;;;;;;2.73;1.10;;;;;;;;;;5022454;28;20042;-60
2023/10/14 11:20:34;;;;;;;4.72;1.10;;;;;;;;;;5021702;28;20417;-61
2023/10/14 11:23:04;;;;;;;2.90;1.17;;;;;;;;;;5021082;28;20042;-59
2023/10/14 11:25:35;;;;;;;;;;;;;;;;;;5018105;28;20064;-59
2023/10/14 11:28:05;;;;;;;2.00;1.17;;;;;;;;;;5021663;28;19932;-60
2023/10/14 11:30:31;;;;;;;2.67;1.15;;;;;;;;;;5020159;28;20053;-59
2023/10/14 11:32:58;;;;;;;2.42;1.42;;;;;;;;;;5021852;28;20046;-60
2023/10/14 11:35:29;;;;;;;1.23;1.08;;;;;;;;;;5020049;28;20030;-60
2023/10/14 11:38:02;;;;;;;3.42;1.60;;;;;;;;;;5017589;28;20056;-59
2023/10/14 11:40:40;;;;;;;2.72;1.38;;;;;;;;;;5018654;28;20449;-61
2023/10/14 11:43:07;;;;;;;3.83;1.40;;;;;;;;;;5015251;28;20514;-60
2023/10/14 11:45:36;;;;;;;2.33;1.50;;;;;;;;;;5016061;28;20528;-61
2023/10/14 11:48:02;;;;;;;1.90;1.25;;;;;;;;;;5012809;28;20037;-61
2023/10/14 11:50:32;;;;;;;3.75;1.83;;;;;;;;;;5022225;28;20049;-61
2023/10/14 11:52:59;;;;;;;3.53;1.52;;;;;;;;;;5025730;28;20033;-59
2023/10/14 11:55:27;;;;;;;2.45;1.73;;;;;;;;;;5022789;28;20053;-59
2023/10/14 11:57:53;;;;;;;12.30;6.35;;;;;;;;;;5023610;28;20041;-59
2023/10/14 12:00:21;;;;;;;25.60;12.32;;;;;;;;;;5023608;28;20052;-59
2023/10/14 12:02:47;;;;;;;4.15;2.72;;;;;;;;;;5026730;28;20048;-59
2023/10/14 12:05:17;;;;;;;3.45;2.08;;;;;;;;;;5024208;28;20031;-59
2023/10/14 12:07:44;;;;;;;2.88;1.75;;;;;;;;;;5017156;28;20385;-59
2023/10/14 12:10:10;;;;;;;4.15;1.48;;;;;;;;;;5020772;28;20029;-59
2023/10/14 12:12:39;;;;;;;3.17;1.40;;;;;;;;;;5026614;28;20503;-59
2023/10/14 12:15:06;;;;;;;2.97;1.40;;;;;;;;;;5016248;28;20042;-59
2023/10/14 12:17:36;;;;;;;8.20;3.33;;;;;;;;;;5017079;28;20064;-59
2023/10/14 12:20:05;;;;;;;34.58;11.98;;;;;;;;;;4999555;28;20041;-60
2023/10/14 12:22:34;;;;;;;10.80;3.83;;;;;;;;;;5027620;28;20049;-60
2023/10/14 12:25:02;;;;;;;2.58;1.55;;;;;;;;;;5016676;28;20033;-59
2023/10/14 12:27:28;;;;;;;4.55;1.80;;;;;;;;;;5021692;28;20037;-59
2023/10/14 12:29:59;;;;;;;4.28;2.38;;;;;;;;;;5022622;28;20045;-59
2023/10/14 12:32:30;;;;;;;5.35;1.95;;;;;;;;;;5021584;28;20421;-58
2023/10/14 12:34:58;;;;;;;5.18;2.30;;;;;;;;;;5023002;28;20034;-59
2023/10/14 12:37:26;;;;;;;22.50;4.28;;;;;;;;;;5025042;28;20052;-58
2023/10/14 12:42:45;;;;;;;5.88;1.70;;;;;;;;;;5021714;28;20389;-60
2023/10/14 12:45:13;;;;;;;8.43;1.77;;;;;;;;;;5021647;28;20154;-60
2023/10/14 12:47:46;;;;;;;2.92;1.33;;;;;;;;;;5021243;28;20041;-59
2023/10/14 12:50:14;;;;;;;6.25;1.63;;;;;;;;;;5022441;28;20040;-59
2023/10/14 12:52:42;;;;;;;4.38;1.60;;;;;;;;;;5020947;28;20047;-60
2023/10/14 12:55:17;;;;;;;2.70;1.42;;;;;;;;;;5022642;28;20033;-60
2023/10/14 12:57:44;;;;;;;3.60;1.77;;;;;;;;;;5018955;28;20052;-59
2023/10/14 13:00:17;;;;;;;5.55;2.28;;;;;;;;;;5020743;28;20050;-59
2023/10/14 13:02:45;;;;;;;3.22;1.90;;;;;;;;;;5022474;28;20037;-59
2023/10/14 13:05:18;;;;;;;6.05;2.05;;;;;;;;;;5021500;28;20033;-59
2023/10/14 13:07:52;;;;;;;8.07;2.38;;;;;;;;;;5022157;28;20045;-60
2023/10/14 13:10:19;;;;;;;6.50;2.92;;;;;;;;;;5022473;28;20041;-59
2023/10/14 13:12:50;;;;;;;2.45;1.10;;;;;;;;;;5021549;28;20889;-58
2023/10/14 13:15:25;;;;;;;3.08;0.85;;;;;;;;;;5017641;28;20049;-59
2023/10/14 13:17:57;;;;;;;5.47;1.33;;;;;;;;;;5020047;28;20033;-59
2023/10/14 13:20:31;;;;;;;4.03;0.70;;;;;;;;;;5022132;28;20049;-59
2023/10/14 13:22:59;;;;;;;1.77;0.57;;;;;;;;;;5018385;28;20041;-59
2023/10/14 13:25:25;;;;;;;8.80;3.67;;;;;;;;;;5022868;28;20037;-59
2023/10/14 13:27:52;;;;;;;2.78;1.85;;;;;;;;;;5023764;28;20045;-59
2023/10/14 13:30:23;;;;;;;3.95;0.93;;;;;;;;;;5023373;28;20026;-59
2023/10/14 13:32:57;;;;;;;5.75;2.58;;;;;;;;;;5018677;28;20068;-59
2023/10/14 13:35:23;;;;;;;2.35;0.98;;;;;;;;;;5020316;28;20038;-60
2023/10/14 13:37:50;;;;;;;2.65;1.05;;;;;;;;;;5021119;28;20041;-59
2023/10/14 13:40:23;;;;;;;2.38;1.05;;;;;;;;;;5007582;28;20049;-59
2023/10/14 13:42:50;;;;;;;2.63;0.90;;;;;;;;;;5012978;28;20052;-59
2023/10/14 13:45:18;;;;;;;1.88;0.95;;;;;;;;;;5021233;28;20049;-59
2023/10/14 13:47:46;;;;;;;2.72;1.15;;;;;;;;;;5019884;28;20045;-59
2023/10/14 13:50:20;;;;;;;2.63;1.05;;;;;;;;;;5019790;28;20034;-59
2023/10/14 13:52:56;;;;;;;2.80;1.13;;;;;;;;;;5020933;28;20041;-59
2023/10/14 13:55:23;;;;;;;3.50;1.55;;;;;;;;;;5022991;28;20045;-63
2023/10/14 13:57:53;;;;;;;1.95;1.00;;;;;;;;;;5018848;28;20029;-59
2023/10/14 14:00:36;;;;;;;6.80;2.22;;;;;;;;;;5020706;28;20049;-58
2023/10/14 14:03:05;;;;;;;4.15;1.20;;;;;;;;;;5020459;28;20050;-58
2023/10/14 14:05:32;;;;;;;4.85;1.17;;;;;;;;;;5016073;28;20052;-58
2023/10/14 14:07:58;;;;;;;7.88;1.60;;;;;;;;;;5015937;28;20044;-58
2023/10/14 14:10:25;;;;;;;3.00;1.27;;;;;;;;;;5014341;28;20050;-59
2023/10/14 14:12:54;;;;;;;4.70;1.25;;;;;;;;;;5015819;28;20037;-60
2023/10/14 14:15:22;;;;;;;2.92;1.33;;;;;;;;;;5022295;28;20560;-58
2023/10/14 14:17:49;;;;;;;4.20;2.08;;;;;;;;;;5017757;28;20034;-60
2023/10/14 14:20:16;;;;;;;8.77;3.33;;;;;;;;;;5018273;28;20030;-58
2023/10/14 14:22:44;;;;;;;4.53;1.60;;;;;;;;;;5017343;28;20048;-58
2023/10/14 14:25:12;;;;;;;2.80;1.52;;;;;;;;;;5028258;28;20037;-58
2023/10/14 14:27:44;;;;;;;4.55;1.30;;;;;;;;;;5022056;28;20040;-58
2023/10/14 14:30:14;;;;;;;3.78;1.25;;;;;;;;;;5025963;28;20041;-59
2023/10/14 14:32:41;;;;;;;10.50;3.03;;;;;;;;;;5019295;28;20030;-59
2023/10/14 14:35:08;;;;;;;5.40;2.08;;;;;;;;;;5025449;28;20045;-59
2023/10/14 14:37:36;;;;;;;6.53;2.03;;;;;;;;;;5023187;28;20033;-59
2023/10/14 14:40:13;;;;;;;6.20;1.98;;;;;;;;;;5027207;28;20053;-57
2023/10/14 14:42:44;;;;;;;6.68;2.85;;;;;;;;;;5027510;28;20037;-59
2023/10/14 14:45:14;;;;;;;4.68;2.30;;;;;;;;;;5023209;28;20029;-60
2023/10/14 14:47:41;;;;;;;7.78;2.03;;;;;;;;;;5027103;28;20033;-57
2023/10/14 14:50:08;;;;;;;7.22;1.70;;;;;;;;;;5025585;28;20044;-60
2023/10/14 14:52:35;;;;;;;4.78;1.58;;;;;;;;;;5028207;28;20045;-57
2023/10/14 14:55:03;;;;;;;6.97;2.22;;;;;;;;;;5019379;28;20050;-58
2023/10/14 14:57:31;;;;;;;10.07;2.70;;;;;;;;;;5021291;28;20034;-58
2023/10/14 14:59:57;;;;;;;6.38;2.22;;;;;;;;;;5019098;28;20037;-59
2023/10/14 15:02:23;;;;;;;5.82;2.05;;;;;;;;;;5020921;28;20042;-57
2023/10/14 15:04:49;;;;;;;6.03;1.70;;;;;;;;;;5023218;28;20045;-59
2023/10/14 15:07:15;;;;;;;3.50;1.60;;;;;;;;;;5019833;28;20417;-58
2023/10/14 15:09:43;;;;;;;4.43;2.13;;;;;;;;;;5024226;28;20048;-58
2023/10/14 15:12:11;;;;;;;4.18;1.83;;;;;;;;;;5020263;28;20064;-58
2023/10/14 15:14:38;;;;;;;8.77;1.90;;;;;;;;;;5023041;28;20367;-58
2023/10/14 15:17:07;;;;;;;7.68;2.30;;;;;;;;;;5018921;28;20037;-58
2023/10/14 15:19:34;;;;;;;6.00;2.10;;;;;;;;;;5021104;28;20038;-58
2023/10/14 15:22:06;;;;;;;6.68;1.80;;;;;;;;;;5023476;28;20405;-61